Skip Navigation Links Skip Navigation Links

Current Weather

Ayers Rock, Australia

For information only: do not use for flight planning or navigation.
Latest weather
Observation time Thursday, January 27, 2022 3:30 PM ACDT
Local time Thursday, January 27, 2022 4:38 PM ACDT
Flight conditions Conditions unknown
Winds
Wind direction Southeast (140°)
Winds variable from 110° to 170°
Wind speed 7 mph
Sky condition
Ceiling unlimited
Temperature 100°F
Dewpoint 59°F
Altimeter 29.62 in.Hg
Derived measurements
Relative humidity 26%
Heat index 100°F
Density altitude 4800 ft.
Remarks
Fully automated report.
METAR YAYE 270500Z AUTO 14006KT 110V170 //// // NCD 38/15 Q1003

Settings

Location code

InnerDrive.Weather 4.0.6770.0 Release CLR 4.0.30319.42000
Copyright ©2018 Inner Drive Technology. All rights reserved. Portions Copyright ©1986-2018 David Braverman.

Find weather

Site navigation


Skip Navigation Links

Place info

Page info

PayPal - The safer, easier way to pay online!

Return home.

Copyright ©2022 Inner Drive Technology. Purveyors of fine, hand-crafted computer software. Page printed 2022-01-27T06:08:14 UTC.